Barataria, Louisiana
Current Conditions -  °F | °C
As of 12:55 AM on Thursday 23 Oct 2014 (Local Time) from KNBG Reporting Station
Clear Clear  
Wind Chill: 61°   Ceiling: Unl
Heat Index: 61°   Visibility: NA
Dew Point: 52°   Wind: 6mph
Humidity: 72%   Direction: 40°NE
Pressure: 30.06"   Gusts: NA
Location:  29.72°N, 90.12°W
Report Text: KNBG 230555Z AUTO 04005KT CLR 16/11 A3006 RMK AO2 SLP180 T01610111 10183 20139 402610133 56002 TSNO $
Loading
Personal Weather Stations






























Interactive Weather Map
Tropical Storm Tracking
New forecast layout! Learn more

10-Day Weather Forecast

Advertisements
Track Severe Weather on mobile